sensor_id;sensor_type;location;lat;lon;timestamp;temperature;humidity
2657;DHT22;1338;48.176;11.792;2023-06-10T00:00:05;14.90;1.00
2657;DHT22;1338;48.176;11.792;2023-06-10T00:02:41;14.80;1.00
2657;DHT22;1338;48.176;11.792;2023-06-10T00:05:11;14.70;1.00
2657;DHT22;1338;48.176;11.792;2023-06-10T00:07:40;14.50;1.00
2657;DHT22;1338;48.176;11.792;2023-06-10T00:10:09;14.40;1.00
2657;DHT22;1338;48.176;11.792;2023-06-10T00:12:38;14.40;1.00
2657;DHT22;1338;48.176;11.792;2023-06-10T00:15:08;14.40;1.00
2657;DHT22;1338;48.176;11.792;2023-06-10T00:17:36;14.50;1.00
2657;DHT22;1338;48.176;11.792;2023-06-10T00:20:08;14.40;1.00
2657;DHT22;1338;48.176;11.792;2023-06-10T00:22:40;14.90;1.00
2657;DHT22;1338;48.176;11.792;2023-06-10T00:25:12;14.80;1.00
2657;DHT22;1338;48.176;11.792;2023-06-10T00:27:41;14.50;1.00
2657;DHT22;1338;48.176;11.792;2023-06-10T00:30:10;14.40;1.00
2657;DHT22;1338;48.176;11.792;2023-06-10T00:32:38;14.50;1.00
2657;DHT22;1338;48.176;11.792;2023-06-10T00:35:07;14.40;1.00
2657;DHT22;1338;48.176;11.792;2023-06-10T00:37:35;14.20;1.00
2657;DHT22;1338;48.176;11.792;2023-06-10T00:40:06;14.20;1.00
2657;DHT22;1338;48.176;11.792;2023-06-10T00:42:36;14.20;1.00
2657;DHT22;1338;48.176;11.792;2023-06-10T00:45:05;14.10;1.00
2657;DHT22;1338;48.176;11.792;2023-06-10T00:47:36;14.10;1.00
2657;DHT22;1338;48.176;11.792;2023-06-10T00:50:05;14.00;1.00
2657;DHT22;1338;48.176;11.792;2023-06-10T00:52:35;14.00;1.00
2657;DHT22;1338;48.176;11.792;2023-06-10T00:55:06;14.10;1.00
2657;DHT22;1338;48.176;11.792;2023-06-10T00:57:36;14.10;1.00
2657;DHT22;1338;48.176;11.792;2023-06-10T01:00:05;14.00;1.00
2657;DHT22;1338;48.176;11.792;2023-06-10T01:02:35;13.90;1.00
2657;DHT22;1338;48.176;11.792;2023-06-10T01:05:04;13.80;1.00
2657;DHT22;1338;48.176;11.792;2023-06-10T01:07:38;13.90;1.00
2657;DHT22;1338;48.176;11.792;2023-06-10T01:10:15;13.80;1.00
2657;DHT22;1338;48.176;11.792;2023-06-10T01:12:46;13.80;1.00
2657;DHT22;1338;48.176;11.792;2023-06-10T01:15:20;14.00;1.00
2657;DHT22;1338;48.176;11.792;2023-06-10T01:17:56;14.50;1.00
2657;DHT22;1338;48.176;11.792;2023-06-10T01:20:26;14.00;1.00
2657;DHT22;1338;48.176;11.792;2023-06-10T01:22:58;13.80;1.00
2657;DHT22;1338;48.176;11.792;2023-06-10T01:25:27;13.60;1.00
2657;DHT22;1338;48.176;11.792;2023-06-10T01:28:10;13.60;1.00
2657;DHT22;1338;48.176;11.792;2023-06-10T01:30:49;13.40;1.00
2657;DHT22;1338;48.176;11.792;2023-06-10T01:33:26;13.30;1.00
2657;DHT22;1338;48.176;11.792;2023-06-10T01:35:56;13.30;42.40
2657;DHT22;1338;48.176;11.792;2023-06-10T01:38:27;13.10;60.70
2657;DHT22;1338;48.176;11.792;2023-06-10T01:40:58;13.10;99.60
2657;DHT22;1338;48.176;11.792;2023-06-10T01:43:27;13.00;99.90
2657;DHT22;1338;48.176;11.792;2023-06-10T01:45:56;12.90;99.90
2657;DHT22;1338;48.176;11.792;2023-06-10T01:48:24;12.80;99.90
2657;DHT22;1338;48.176;11.792;2023-06-10T01:50:52;12.90;99.90
2657;DHT22;1338;48.176;11.792;2023-06-10T01:53:22;12.80;99.90
2657;DHT22;1338;48.176;11.792;2023-06-10T01:55:54;12.80;99.90
2657;DHT22;1338;48.176;11.792;2023-06-10T01:58:22;12.60;99.90
2657;DHT22;1338;48.176;11.792;2023-06-10T02:00:51;12.70;99.90
2657;DHT22;1338;48.176;11.792;2023-06-10T02:03:19;12.40;99.90
2657;DHT22;1338;48.176;11.792;2023-06-10T02:05:48;12.30;99.90
2657;DHT22;1338;48.176;11.792;2023-06-10T02:08:16;12.40;99.90
2657;DHT22;1338;48.176;11.792;2023-06-10T02:10:45;12.50;99.90
2657;DHT22;1338;48.176;11.792;2023-06-10T02:13:14;12.60;99.90
2657;DHT22;1338;48.176;11.792;2023-06-10T02:15:42;12.70;99.90
2657;DHT22;1338;48.176;11.792;2023-06-10T02:18:10;12.70;99.90
2657;DHT22;1338;48.176;11.792;2023-06-10T02:20:39;12.60;99.90
2657;DHT22;1338;48.176;11.792;2023-06-10T02:23:07;12.70;99.90
2657;DHT22;1338;48.176;11.792;2023-06-10T02:25:35;12.70;99.90
2657;DHT22;1338;48.176;11.792;2023-06-10T02:28:04;12.70;99.90
2657;DHT22;1338;48.176;11.792;2023-06-10T02:30:34;12.60;99.90
2657;DHT22;1338;48.176;11.792;2023-06-10T02:33:03;12.50;1.00
2657;DHT22;1338;48.176;11.792;2023-06-10T02:35:32;12.30;99.90
2657;DHT22;1338;48.176;11.792;2023-06-10T02:38:00;12.10;99.90
2657;DHT22;1338;48.176;11.792;2023-06-10T02:40:29;11.90;1.00
2657;DHT22;1338;48.176;11.792;2023-06-10T02:42:57;11.80;1.00
2657;DHT22;1338;48.176;11.792;2023-06-10T02:45:26;11.90;1.00
2657;DHT22;1338;48.176;11.792;2023-06-10T02:47:57;11.80;99.90
2657;DHT22;1338;48.176;11.792;2023-06-10T02:50:25;11.90;1.00
2657;DHT22;1338;48.176;11.792;2023-06-10T02:53:04;12.00;1.00
2657;DHT22;1338;48.176;11.792;2023-06-10T02:55:35;12.10;1.00
2657;DHT22;1338;48.176;11.792;2023-06-10T02:58:06;12.10;1.00
2657;DHT22;1338;48.176;11.792;2023-06-10T03:00:35;11.90;1.00
2657;DHT22;1338;48.176;11.792;2023-06-10T03:03:05;11.90;1.00
2657;DHT22;1338;48.176;11.792;2023-06-10T03:05:42;11.90;1.00
2657;DHT22;1338;48.176;11.792;2023-06-10T03:08:10;11.80;1.00
2657;DHT22;1338;48.176;11.792;2023-06-10T03:10:41;11.80;1.00
2657;DHT22;1338;48.176;11.792;2023-06-10T03:13:13;11.60;1.00
2657;DHT22;1338;48.176;11.792;2023-06-10T03:15:42;11.70;1.00
2657;DHT22;1338;48.176;11.792;2023-06-10T03:18:15;11.60;1.00
2657;DHT22;1338;48.176;11.792;2023-06-10T03:20:44;11.70;1.00
2657;DHT22;1338;48.176;11.792;2023-06-10T03:23:12;11.70;1.00
2657;DHT22;1338;48.176;11.792;2023-06-10T03:25:40;11.70;99.90
2657;DHT22;1338;48.176;11.792;2023-06-10T03:28:12;11.70;93.80
2657;DHT22;1338;48.176;11.792;2023-06-10T03:30:41;11.70;80.10
2657;DHT22;1338;48.176;11.792;2023-06-10T03:33:09;11.70;30.80
2657;DHT22;1338;48.176;11.792;2023-06-10T03:35:40;11.50;1.00
2657;DHT22;1338;48.176;11.792;2023-06-10T03:38:08;11.60;1.00
2657;DHT22;1338;48.176;11.792;2023-06-10T03:40:38;11.70;55.10
2657;DHT22;1338;48.176;11.792;2023-06-10T03:43:06;11.70;47.10
2657;DHT22;1338;48.176;11.792;2023-06-10T03:45:35;11.70;96.30
2657;DHT22;1338;48.176;11.792;2023-06-10T03:48:04;11.60;15.40
2657;DHT22;1338;48.176;11.792;2023-06-10T03:50:43;11.70;99.90
2657;DHT22;1338;48.176;11.792;2023-06-10T03:53:11;11.60;99.90
2657;DHT22;1338;48.176;11.792;2023-06-10T03:55:41;11.60;99.90
2657;DHT22;1338;48.176;11.792;2023-06-10T03:58:10;11.70;99.90
2657;DHT22;1338;48.176;11.792;2023-06-10T04:00:40;11.80;99.90
2657;DHT22;1338;48.176;11.792;2023-06-10T04:03:09;12.00;96.90
2657;DHT22;1338;48.176;11.792;2023-06-10T04:05:48;12.00;36.50
2657;DHT22;1338;48.176;11.792;2023-06-10T04:08:17;12.20;1.00
2657;DHT22;1338;48.176;11.792;2023-06-10T04:10:45;12.70;1.00
2657;DHT22;1338;48.176;11.792;2023-06-10T04:13:13;12.80;1.00
2657;DHT22;1338;48.176;11.792;2023-06-10T04:16:01;12.90;1.00
2657;DHT22;1338;48.176;11.792;2023-06-10T04:18:29;12.80;1.00
2657;DHT22;1338;48.176;11.792;2023-06-10T04:21:04;12.80;1.00
2657;DHT22;1338;48.176;11.792;2023-06-10T04:23:32;12.90;1.00
2657;DHT22;1338;48.176;11.792;2023-06-10T04:26:01;12.80;1.00
2657;DHT22;1338;48.176;11.792;2023-06-10T04:28:30;13.10;1.00
2657;DHT22;1338;48.176;11.792;2023-06-10T04:30:58;13.20;1.00
2657;DHT22;1338;48.176;11.792;2023-06-10T04:33:28;13.30;1.00
2657;DHT22;1338;48.176;11.792;2023-06-10T04:35:56;13.30;1.00
2657;DHT22;1338;48.176;11.792;2023-06-10T04:38:29;13.50;1.00
2657;DHT22;1338;48.176;11.792;2023-06-10T04:40:59;13.60;99.90
2657;DHT22;1338;48.176;11.792;2023-06-10T04:43:30;13.90;99.90
2657;DHT22;1338;48.176;11.792;2023-06-10T04:45:59;14.10;99.90
2657;DHT22;1338;48.176;11.792;2023-06-10T04:48:29;14.10;99.90
2657;DHT22;1338;48.176;11.792;2023-06-10T04:50:58;14.30;99.90
2657;DHT22;1338;48.176;11.792;2023-06-10T04:53:28;14.60;24.80
2657;DHT22;1338;48.176;11.792;2023-06-10T04:55:56;14.70;59.60
2657;DHT22;1338;48.176;11.792;2023-06-10T04:58:25;14.70;1.00
2657;DHT22;1338;48.176;11.792;2023-06-10T05:00:53;14.70;99.90
2657;DHT22;1338;48.176;11.792;2023-06-10T05:03:21;14.80;97.90
2657;DHT22;1338;48.176;11.792;2023-06-10T05:05:49;15.00;24.00
2657;DHT22;1338;48.176;11.792;2023-06-10T05:08:18;15.00;1.00
2657;DHT22;1338;48.176;11.792;2023-06-10T05:10:47;15.20;1.00
2657;DHT22;1338;48.176;11.792;2023-06-10T05:13:16;15.50;1.00
2657;DHT22;1338;48.176;11.792;2023-06-10T05:15:45;15.50;1.00
2657;DHT22;1338;48.176;11.792;2023-06-10T05:18:13;15.70;1.00
2657;DHT22;1338;48.176;11.792;2023-06-10T05:20:41;15.70;1.00
2657;DHT22;1338;48.176;11.792;2023-06-10T05:23:10;15.80;1.00
2657;DHT22;1338;48.176;11.792;2023-06-10T05:25:41;16.20;1.00
2657;DHT22;1338;48.176;11.792;2023-06-10T05:28:11;16.20;1.00
2657;DHT22;1338;48.176;11.792;2023-06-10T05:30:41;16.00;1.00
2657;DHT22;1338;48.176;11.792;2023-06-10T05:33:10;16.50;1.00
2657;DHT22;1338;48.176;11.792;2023-06-10T05:35:38;16.30;1.00
2657;DHT22;1338;48.176;11.792;2023-06-10T05:38:07;16.20;1.00
2657;DHT22;1338;48.176;11.792;2023-06-10T05:40:36;16.40;1.00
2657;DHT22;1338;48.176;11.792;2023-06-10T05:43:05;16.80;1.00
2657;DHT22;1338;48.176;11.792;2023-06-10T05:45:34;17.00;1.00
2657;DHT22;1338;48.176;11.792;2023-06-10T05:48:03;16.80;1.00
2657;DHT22;1338;48.176;11.792;2023-06-10T05:50:33;17.30;1.00
2657;DHT22;1338;48.176;11.792;2023-06-10T05:53:05;17.20;1.00
2657;DHT22;1338;48.176;11.792;2023-06-10T05:55:35;17.20;1.00
2657;DHT22;1338;48.176;11.792;2023-06-10T05:58:03;17.40;1.00
2657;DHT22;1338;48.176;11.792;2023-06-10T06:00:31;17.30;1.00
2657;DHT22;1338;48.176;11.792;2023-06-10T06:03:06;17.40;1.00
2657;DHT22;1338;48.176;11.792;2023-06-10T06:05:36;17.50;1.00
2657;DHT22;1338;48.176;11.792;2023-06-10T06:08:05;17.60;1.00
2657;DHT22;1338;48.176;11.792;2023-06-10T06:10:33;17.80;1.00
2657;DHT22;1338;48.176;11.792;2023-06-10T06:13:02;17.70;1.00
2657;DHT22;1338;48.176;11.792;2023-06-10T06:15:30;17.60;1.00
2657;DHT22;1338;48.176;11.792;2023-06-10T06:17:59;17.50;1.00
2657;DHT22;1338;48.176;11.792;2023-06-10T06:20:29;17.40;1.00
2657;DHT22;1338;48.176;11.792;2023-06-10T06:22:57;17.40;1.00
2657;DHT22;1338;48.176;11.792;2023-06-10T06:25:25;17.30;1.00
2657;DHT22;1338;48.176;11.792;2023-06-10T06:27:53;17.40;1.00
2657;DHT22;1338;48.176;11.792;2023-06-10T06:30:21;17.30;1.00
2657;DHT22;1338;48.176;11.792;2023-06-10T06:32:49;17.20;1.00
2657;DHT22;1338;48.176;11.792;2023-06-10T06:35:19;17.30;1.00
2657;DHT22;1338;48.176;11.792;2023-06-10T06:37:48;17.60;1.00
2657;DHT22;1338;48.176;11.792;2023-06-10T06:40:21;17.60;1.00
2657;DHT22;1338;48.176;11.792;2023-06-10T06:42:50;17.80;1.00
2657;DHT22;1338;48.176;11.792;2023-06-10T06:45:36;17.70;1.00
2657;DHT22;1338;48.176;11.792;2023-06-10T06:48:05;17.80;1.00
2657;DHT22;1338;48.176;11.792;2023-06-10T06:50:33;18.10;1.00
2657;DHT22;1338;48.176;11.792;2023-06-10T06:53:03;18.10;1.00
2657;DHT22;1338;48.176;11.792;2023-06-10T06:55:31;18.60;1.00
2657;DHT22;1338;48.176;11.792;2023-06-10T06:57:59;18.80;1.00
2657;DHT22;1338;48.176;11.792;2023-06-10T07:00:30;18.90;1.00
2657;DHT22;1338;48.176;11.792;2023-06-10T07:02:59;19.10;1.00
2657;DHT22;1338;48.176;11.792;2023-06-10T07:05:27;19.10;1.00
2657;DHT22;1338;48.176;11.792;2023-06-10T07:07:55;19.20;1.00
2657;DHT22;1338;48.176;11.792;2023-06-10T07:10:25;19.30;99.90
2657;DHT22;1338;48.176;11.792;2023-06-10T07:12:53;19.40;99.90
2657;DHT22;1338;48.176;11.792;2023-06-10T07:15:21;19.50;99.90
2657;DHT22;1338;48.176;11.792;2023-06-10T07:17:50;19.40;99.90
2657;DHT22;1338;48.176;11.792;2023-06-10T07:20:18;19.60;99.90
2657;DHT22;1338;48.176;11.792;2023-06-10T07:22:46;19.70;99.90
2657;DHT22;1338;48.176;11.792;2023-06-10T07:25:14;19.80;99.90
2657;DHT22;1338;48.176;11.792;2023-06-10T07:27:44;19.80;99.90
2657;DHT22;1338;48.176;11.792;2023-06-10T07:30:13;19.90;99.90
2657;DHT22;1338;48.176;11.792;2023-06-10T07:32:41;20.10;99.90
2657;DHT22;1338;48.176;11.792;2023-06-10T07:35:11;20.30;99.90
2657;DHT22;1338;48.176;11.792;2023-06-10T07:37:40;20.50;99.90
2657;DHT22;1338;48.176;11.792;2023-06-10T07:40:08;20.70;99.90
2657;DHT22;1338;48.176;11.792;2023-06-10T07:42:37;20.50;99.90
2657;DHT22;1338;48.176;11.792;2023-06-10T07:45:07;20.40;99.90
2657;DHT22;1338;48.176;11.792;2023-06-10T07:47:36;20.50;99.90
2657;DHT22;1338;48.176;11.792;2023-06-10T07:50:05;20.60;99.90
2657;DHT22;1338;48.176;11.792;2023-06-10T07:52:33;20.70;99.90
2657;DHT22;1338;48.176;11.792;2023-06-10T07:55:01;20.70;99.90
2657;DHT22;1338;48.176;11.792;2023-06-10T07:57:29;20.80;99.90
2657;DHT22;1338;48.176;11.792;2023-06-10T07:59:58;21.10;99.90
2657;DHT22;1338;48.176;11.792;2023-06-10T08:02:29;21.20;99.90
2657;DHT22;1338;48.176;11.792;2023-06-10T08:04:57;21.10;99.90
2657;DHT22;1338;48.176;11.792;2023-06-10T08:07:25;21.20;99.90
2657;DHT22;1338;48.176;11.792;2023-06-10T08:09:53;21.10;99.90
2657;DHT22;1338;48.176;11.792;2023-06-10T08:12:21;21.20;99.90
2657;DHT22;1338;48.176;11.792;2023-06-10T08:14:50;21.40;99.90
2657;DHT22;1338;48.176;11.792;2023-06-10T08:17:18;21.40;99.90
2657;DHT22;1338;48.176;11.792;2023-06-10T08:19:47;21.40;99.90
2657;DHT22;1338;48.176;11.792;2023-06-10T08:22:15;21.40;99.90
2657;DHT22;1338;48.176;11.792;2023-06-10T08:24:43;21.60;99.90
2657;DHT22;1338;48.176;11.792;2023-06-10T08:27:15;21.70;99.90
2657;DHT22;1338;48.176;11.792;2023-06-10T08:29:43;22.00;99.90
2657;DHT22;1338;48.176;11.792;2023-06-10T08:32:11;21.70;99.90
2657;DHT22;1338;48.176;11.792;2023-06-10T08:34:40;21.60;99.90
2657;DHT22;1338;48.176;11.792;2023-06-10T08:37:09;21.90;99.90
2657;DHT22;1338;48.176;11.792;2023-06-10T08:39:37;22.10;99.90
2657;DHT22;1338;48.176;11.792;2023-06-10T08:42:11;22.10;99.90
2657;DHT22;1338;48.176;11.792;2023-06-10T08:44:40;22.40;99.90
2657;DHT22;1338;48.176;11.792;2023-06-10T08:47:13;22.30;99.90
2657;DHT22;1338;48.176;11.792;2023-06-10T08:49:44;22.40;99.90
2657;DHT22;1338;48.176;11.792;2023-06-10T08:52:17;22.60;99.90
2657;DHT22;1338;48.176;11.792;2023-06-10T08:54:49;22.20;99.90
2657;DHT22;1338;48.176;11.792;2023-06-10T08:57:20;22.40;99.90
2657;DHT22;1338;48.176;11.792;2023-06-10T08:59:48;22.50;99.90
2657;DHT22;1338;48.176;11.792;2023-06-10T09:02:17;22.40;99.90
2657;DHT22;1338;48.176;11.792;2023-06-10T09:04:47;22.10;99.90
2657;DHT22;1338;48.176;11.792;2023-06-10T09:07:18;21.90;99.90
2657;DHT22;1338;48.176;11.792;2023-06-10T09:09:46;22.40;99.90
2657;DHT22;1338;48.176;11.792;2023-06-10T09:12:15;22.70;99.90
2657;DHT22;1338;48.176;11.792;2023-06-10T09:14:43;23.20;99.90
2657;DHT22;1338;48.176;11.792;2023-06-10T09:17:12;22.90;99.90
2657;DHT22;1338;48.176;11.792;2023-06-10T09:19:40;22.50;99.90
2657;DHT22;1338;48.176;11.792;2023-06-10T09:22:09;22.70;99.90
2657;DHT22;1338;48.176;11.792;2023-06-10T09:24:40;22.90;99.90
2657;DHT22;1338;48.176;11.792;2023-06-10T09:27:09;23.20;99.90
2657;DHT22;1338;48.176;11.792;2023-06-10T09:29:47;22.70;99.90
2657;DHT22;1338;48.176;11.792;2023-06-10T09:32:19;22.40;99.90
2657;DHT22;1338;48.176;11.792;2023-06-10T09:34:48;22.10;99.90
2657;DHT22;1338;48.176;11.792;2023-06-10T09:37:20;22.10;99.90
2657;DHT22;1338;48.176;11.792;2023-06-10T09:40:04;22.30;99.90
2657;DHT22;1338;48.176;11.792;2023-06-10T09:42:34;22.60;99.90
2657;DHT22;1338;48.176;11.792;2023-06-10T09:45:03;23.60;99.90
2657;DHT22;1338;48.176;11.792;2023-06-10T09:47:31;23.80;99.90
2657;DHT22;1338;48.176;11.792;2023-06-10T09:49:59;23.90;99.90
2657;DHT22;1338;48.176;11.792;2023-06-10T09:52:29;24.30;99.90
2657;DHT22;1338;48.176;11.792;2023-06-10T09:55:00;24.30;99.90
2657;DHT22;1338;48.176;11.792;2023-06-10T09:57:32;23.50;99.90
2657;DHT22;1338;48.176;11.792;2023-06-10T10:00:04;23.00;99.90
2657;DHT22;1338;48.176;11.792;2023-06-10T10:02:47;23.00;99.90
2657;DHT22;1338;48.176;11.792;2023-06-10T10:05:17;22.80;99.90
2657;DHT22;1338;48.176;11.792;2023-06-10T10:07:46;22.80;99.90
2657;DHT22;1338;48.176;11.792;2023-06-10T10:10:16;22.90;99.90
2657;DHT22;1338;48.176;11.792;2023-06-10T10:12:48;23.50;99.90
2657;DHT22;1338;48.176;11.792;2023-06-10T10:15:19;24.10;99.90
2657;DHT22;1338;48.176;11.792;2023-06-10T10:17:53;24.40;99.90
2657;DHT22;1338;48.176;11.792;2023-06-10T10:20:26;24.50;99.90
2657;DHT22;1338;48.176;11.792;2023-06-10T10:22:57;24.60;99.90
2657;DHT22;1338;48.176;11.792;2023-06-10T10:25:28;24.70;99.90
2657;DHT22;1338;48.176;11.792;2023-06-10T10:28:04;25.30;99.90
2657;DHT22;1338;48.176;11.792;2023-06-10T10:30:39;25.30;99.90
2657;DHT22;1338;48.176;11.792;2023-06-10T10:33:12;25.20;99.90
2657;DHT22;1338;48.176;11.792;2023-06-10T10:35:41;25.50;99.90
2657;DHT22;1338;48.176;11.792;2023-06-10T10:38:10;25.40;99.90
2657;DHT22;1338;48.176;11.792;2023-06-10T10:40:39;25.40;90.50
2657;DHT22;1338;48.176;11.792;2023-06-10T10:43:09;25.60;92.00
2657;DHT22;1338;48.176;11.792;2023-06-10T10:45:37;25.10;82.40
2657;DHT22;1338;48.176;11.792;2023-06-10T10:48:08;26.20;79.40
2657;DHT22;1338;48.176;11.792;2023-06-10T10:50:39;25.90;56.50
2657;DHT22;1338;48.176;11.792;2023-06-10T10:53:08;25.20;61.80
2657;DHT22;1338;48.176;11.792;2023-06-10T10:55:36;25.10;60.80
2657;DHT22;1338;48.176;11.792;2023-06-10T10:58:05;25.80;53.90
2657;DHT22;1338;48.176;11.792;2023-06-10T11:00:36;26.40;32.70
2657;DHT22;1338;48.176;11.792;2023-06-10T11:03:06;26.10;26.30
2657;DHT22;1338;48.176;11.792;2023-06-10T11:05:39;25.30;28.50
2657;DHT22;1338;48.176;11.792;2023-06-10T11:08:08;24.50;18.80
2657;DHT22;1338;48.176;11.792;2023-06-10T11:10:37;24.60;23.00
2657;DHT22;1338;48.176;11.792;2023-06-10T11:13:07;25.20;28.60
2657;DHT22;1338;48.176;11.792;2023-06-10T11:15:43;25.80;18.50
2657;DHT22;1338;48.176;11.792;2023-06-10T11:18:20;26.20;12.70
2657;DHT22;1338;48.176;11.792;2023-06-10T11:20:59;26.20;7.90
2657;DHT22;1338;48.176;11.792;2023-06-10T11:23:41;26.40;1.00
2657;DHT22;1338;48.176;11.792;2023-06-10T11:26:29;25.90;1.00
2657;DHT22;1338;48.176;11.792;2023-06-10T11:29:07;26.60;1.00
2657;DHT22;1338;48.176;11.792;2023-06-10T11:31:42;26.80;1.00
2657;DHT22;1338;48.176;11.792;2023-06-10T11:34:11;25.90;1.00
2657;DHT22;1338;48.176;11.792;2023-06-10T11:36:41;26.60;1.00
2657;DHT22;1338;48.176;11.792;2023-06-10T11:39:12;26.20;1.00
2657;DHT22;1338;48.176;11.792;2023-06-10T11:41:40;26.30;1.00
2657;DHT22;1338;48.176;11.792;2023-06-10T11:44:10;27.10;1.00
2657;DHT22;1338;48.176;11.792;2023-06-10T11:46:41;27.10;1.00
2657;DHT22;1338;48.176;11.792;2023-06-10T11:49:11;27.20;1.00
2657;DHT22;1338;48.176;11.792;2023-06-10T11:51:41;27.80;1.00
2657;DHT22;1338;48.176;11.792;2023-06-10T11:54:16;28.50;1.00
2657;DHT22;1338;48.176;11.792;2023-06-10T11:56:46;28.40;1.00
2657;DHT22;1338;48.176;11.792;2023-06-10T11:59:14;26.90;1.00
2657;DHT22;1338;48.176;11.792;2023-06-10T12:01:45;27.00;1.00
2657;DHT22;1338;48.176;11.792;2023-06-10T12:04:15;26.20;1.00
2657;DHT22;1338;48.176;11.792;2023-06-10T12:06:46;26.10;1.00
2657;DHT22;1338;48.176;11.792;2023-06-10T12:09:19;25.90;1.00
2657;DHT22;1338;48.176;11.792;2023-06-10T12:11:57;27.10;1.00
2657;DHT22;1338;48.176;11.792;2023-06-10T12:14:51;26.90;1.00
2657;DHT22;1338;48.176;11.792;2023-06-10T12:17:35;26.40;1.00
2657;DHT22;1338;48.176;11.792;2023-06-10T12:20:06;27.10;1.00
2657;DHT22;1338;48.176;11.792;2023-06-10T12:22:39;27.70;1.00
2657;DHT22;1338;48.176;11.792;2023-06-10T12:25:08;27.10;1.00
2657;DHT22;1338;48.176;11.792;2023-06-10T12:27:39;28.00;1.00
2657;DHT22;1338;48.176;11.792;2023-06-10T12:30:08;27.90;1.00
2657;DHT22;1338;48.176;11.792;2023-06-10T12:32:40;28.70;1.00
2657;DHT22;1338;48.176;11.792;2023-06-10T12:35:10;28.00;1.00
2657;DHT22;1338;48.176;11.792;2023-06-10T12:37:39;28.70;1.00
2657;DHT22;1338;48.176;11.792;2023-06-10T12:40:10;28.50;1.00
2657;DHT22;1338;48.176;11.792;2023-06-10T12:42:39;27.80;1.00
2657;DHT22;1338;48.176;11.792;2023-06-10T12:45:09;27.40;1.00
2657;DHT22;1338;48.176;11.792;2023-06-10T12:47:41;27.10;1.00
2657;DHT22;1338;48.176;11.792;2023-06-10T12:50:09;26.90;1.00
2657;DHT22;1338;48.176;11.792;2023-06-10T12:52:39;27.00;1.00
2657;DHT22;1338;48.176;11.792;2023-06-10T12:55:09;26.50;1.00
2657;DHT22;1338;48.176;11.792;2023-06-10T12:57:48;26.60;1.00
2657;DHT22;1338;48.176;11.792;2023-06-10T13:00:18;26.20;1.00
2657;DHT22;1338;48.176;11.792;2023-06-10T13:02:48;26.20;1.00
2657;DHT22;1338;48.176;11.792;2023-06-10T13:05:17;25.90;1.00
2657;DHT22;1338;48.176;11.792;2023-06-10T13:07:47;26.00;1.00
2657;DHT22;1338;48.176;11.792;2023-06-10T13:10:16;26.20;1.00
2657;DHT22;1338;48.176;11.792;2023-06-10T13:12:44;26.10;1.00
2657;DHT22;1338;48.176;11.792;2023-06-10T13:15:15;26.20;1.00
2657;DHT22;1338;48.176;11.792;2023-06-10T13:17:44;26.20;1.00
2657;DHT22;1338;48.176;11.792;2023-06-10T13:20:18;26.10;1.00
2657;DHT22;1338;48.176;11.792;2023-06-10T13:22:47;25.80;1.00
2657;DHT22;1338;48.176;11.792;2023-06-10T13:25:16;25.90;1.00
2657;DHT22;1338;48.176;11.792;2023-06-10T13:27:45;25.90;1.00
2657;DHT22;1338;48.176;11.792;2023-06-10T13:30:13;26.00;1.00
2657;DHT22;1338;48.176;11.792;2023-06-10T13:32:42;26.00;1.00
2657;DHT22;1338;48.176;11.792;2023-06-10T13:35:10;25.90;1.00
2657;DHT22;1338;48.176;11.792;2023-06-10T13:37:40;26.00;1.00
2657;DHT22;1338;48.176;11.792;2023-06-10T13:40:09;26.00;1.00
2657;DHT22;1338;48.176;11.792;2023-06-10T13:42:38;26.60;1.00
2657;DHT22;1338;48.176;11.792;2023-06-10T13:45:07;27.20;1.00
2657;DHT22;1338;48.176;11.792;2023-06-10T13:47:36;27.50;1.00
2657;DHT22;1338;48.176;11.792;2023-06-10T13:50:06;28.00;1.00
2657;DHT22;1338;48.176;11.792;2023-06-10T13:52:35;27.90;1.00
2657;DHT22;1338;48.176;11.792;2023-06-10T13:55:05;28.20;1.00
2657;DHT22;1338;48.176;11.792;2023-06-10T13:57:34;28.00;1.00
2657;DHT22;1338;48.176;11.792;2023-06-10T14:00:03;28.30;1.00
2657;DHT22;1338;48.176;11.792;2023-06-10T14:02:32;28.00;1.00
2657;DHT22;1338;48.176;11.792;2023-06-10T14:05:00;28.90;1.00
2657;DHT22;1338;48.176;11.792;2023-06-10T14:07:29;27.50;1.00
2657;DHT22;1338;48.176;11.792;2023-06-10T14:09:57;28.50;1.00
2657;DHT22;1338;48.176;11.792;2023-06-10T14:12:27;30.30;1.00
2657;DHT22;1338;48.176;11.792;2023-06-10T14:14:55;29.10;1.00
2657;DHT22;1338;48.176;11.792;2023-06-10T14:17:23;28.40;1.00
2657;DHT22;1338;48.176;11.792;2023-06-10T14:19:51;28.10;1.00
2657;DHT22;1338;48.176;11.792;2023-06-10T14:22:19;30.80;1.00
2657;DHT22;1338;48.176;11.792;2023-06-10T14:24:48;29.80;1.00
2657;DHT22;1338;48.176;11.792;2023-06-10T14:27:16;29.90;1.00
2657;DHT22;1338;48.176;11.792;2023-06-10T14:29:46;30.60;1.00
2657;DHT22;1338;48.176;11.792;2023-06-10T14:32:14;31.40;1.00
2657;DHT22;1338;48.176;11.792;2023-06-10T14:34:42;30.20;1.00
2657;DHT22;1338;48.176;11.792;2023-06-10T14:37:11;28.90;1.00
2657;DHT22;1338;48.176;11.792;2023-06-10T14:39:39;28.40;1.00
2657;DHT22;1338;48.176;11.792;2023-06-10T14:42:08;28.50;1.00
2657;DHT22;1338;48.176;11.792;2023-06-10T14:44:37;28.30;1.00
2657;DHT22;1338;48.176;11.792;2023-06-10T14:47:07;27.30;1.00
2657;DHT22;1338;48.176;11.792;2023-06-10T14:49:35;27.60;1.00
2657;DHT22;1338;48.176;11.792;2023-06-10T14:52:03;28.00;1.00
2657;DHT22;1338;48.176;11.792;2023-06-10T14:54:32;28.00;1.00
2657;DHT22;1338;48.176;11.792;2023-06-10T14:57:00;27.90;1.00
2657;DHT22;1338;48.176;11.792;2023-06-10T14:59:28;27.70;1.00
2657;DHT22;1338;48.176;11.792;2023-06-10T15:01:56;27.20;1.00
2657;DHT22;1338;48.176;11.792;2023-06-10T15:04:28;27.20;1.00
2657;DHT22;1338;48.176;11.792;2023-06-10T15:06:56;26.80;1.00
2657;DHT22;1338;48.176;11.792;2023-06-10T15:09:24;26.80;1.00
2657;DHT22;1338;48.176;11.792;2023-06-10T15:11:52;27.10;1.00
2657;DHT22;1338;48.176;11.792;2023-06-10T15:14:21;27.00;1.00
2657;DHT22;1338;48.176;11.792;2023-06-10T15:16:49;26.70;1.00
2657;DHT22;1338;48.176;11.792;2023-06-10T15:19:17;26.50;1.00
2657;DHT22;1338;48.176;11.792;2023-06-10T15:21:46;26.40;1.00
2657;DHT22;1338;48.176;11.792;2023-06-10T15:24:15;26.70;1.00
2657;DHT22;1338;48.176;11.792;2023-06-10T15:26:43;26.40;1.00
2657;DHT22;1338;48.176;11.792;2023-06-10T15:29:11;26.10;1.00
2657;DHT22;1338;48.176;11.792;2023-06-10T15:31:40;26.20;1.00
2657;DHT22;1338;48.176;11.792;2023-06-10T15:34:08;25.90;1.00
2657;DHT22;1338;48.176;11.792;2023-06-10T15:36:36;26.00;1.00
2657;DHT22;1338;48.176;11.792;2023-06-10T15:39:06;25.80;1.00
2657;DHT22;1338;48.176;11.792;2023-06-10T15:41:34;25.70;1.00
2657;DHT22;1338;48.176;11.792;2023-06-10T15:44:03;25.80;1.00
2657;DHT22;1338;48.176;11.792;2023-06-10T15:46:31;25.70;1.00
2657;DHT22;1338;48.176;11.792;2023-06-10T15:49:01;25.60;1.00
2657;DHT22;1338;48.176;11.792;2023-06-10T15:51:30;25.80;1.00
2657;DHT22;1338;48.176;11.792;2023-06-10T15:53:58;26.30;1.00
2657;DHT22;1338;48.176;11.792;2023-06-10T15:56:27;25.80;1.00
2657;DHT22;1338;48.176;11.792;2023-06-10T15:58:56;25.60;1.00
2657;DHT22;1338;48.176;11.792;2023-06-10T16:01:24;25.50;1.00
2657;DHT22;1338;48.176;11.792;2023-06-10T16:03:52;25.50;1.00
2657;DHT22;1338;48.176;11.792;2023-06-10T16:06:20;25.70;1.00
2657;DHT22;1338;48.176;11.792;2023-06-10T16:08:48;25.40;1.00
2657;DHT22;1338;48.176;11.792;2023-06-10T16:11:17;25.20;1.00